Flight Track Log - Related Links

Times and Time Zones

All times are in EDT time to prevent confusion due to time zone crossing. See the WIG7413 flight status page for this flight to view local times or setup timezone preferences in your user account.

Time Position Orientation Groundspeed Altitude Reporting Facility
EDT Latitude Longitude Course Direction KTS MPH feet Rate Location/Type
Thu 10:15:14 PM 42.7339 -73.8081 185° South 87 100 1,000  Level Boston Center
Thu 10:16:03 PM 42.7131 -73.8106 185° South 95 109 1,900 1,156 Climbing Boston Center
Thu 10:17:03 PM 42.6942 -73.8300 217° Southwest 88 101 3,100 1,140 Climbing Boston Center
Thu 10:18:04 PM 42.6689 -73.8492 209° Southwest 112 129 4,200 1,180 Climbing Boston Center
Thu 10:19:05 PM 42.6417 -73.8683 207° Southwest 117 135 5,500 1,190 Climbing Boston Center
Thu 10:20:05 PM 42.6142 -73.8903 210° Southwest 110 127 6,600 1,140 Climbing Boston Center
Thu 10:21:06 PM 42.5867 -73.9122 210° Southwest 108 124 7,800 689 Climbing Boston Center
Thu 10:22:07 PM 42.5553 -73.9367 210° Southwest 125 144 8,000 99 Climbing Boston Center
Thu 10:23:07 PM 42.5172 -73.9639 208° Southwest 157 181 8,000  Level Boston Center
Thu 10:24:14 PM 42.4794 -73.9969 213° Southwest 156 180 8,000  Level Boston Center
Thu 10:25:09 PM 42.4456 -74.0214 208° Southwest 152 175 8,000  Level Boston Center
Thu 10:26:15 PM 42.4056 -74.0511 209° Southwest 145 167 8,000  Level Boston Center
Thu 10:27:16 PM 42.3697 -74.0783 209° Southwest 146 168 8,000 67 Level Boston Center
Thu 10:27:44 PM 42.3550 -74.0892 209° Southwest 151 174 8,100 68 Climbing Boston Center
Thu 10:28:44 PM 42.3192 -74.1192 212° Southwest 158 182 8,100  Level Boston Center
Thu 10:29:44 PM 42.2875 -74.1408 207° Southwest 152 175 8,100  Level Boston Center
Thu 10:30:44 PM 42.2475 -74.1733 211° Southwest 152 175 8,100  Level Boston Center
Thu 10:31:44 PM 42.2139 -74.1922 203° Southwest 152 175 8,100  Level Boston Center
Thu 10:32:44 PM 42.1697 -74.2133 200° South 157 181 8,100  Level Boston Center
Thu 10:33:44 PM 42.1342 -74.2289 198° South 157 181 8,100  Level Boston Center
Thu 10:34:44 PM 42.0878 -74.2528 201° Southwest 157 181 8,100 -50 Level Boston Center
Thu 10:35:44 PM 42.0522 -74.2714 201° Southwest 157 181 8,000 -50 Descending Boston Center
Thu 10:36:44 PM 42.0058 -74.2925 199° South 157 181 8,000  Level Boston Center
Thu 10:37:44 PM 41.9681 -74.3108 200° South 157 181 8,000 -50 Level Boston Center
Thu 10:38:44 PM 41.9239 -74.3347 202° Southwest 162 186 7,900 -300 Descending Boston Center
Thu 10:39:44 PM 41.8861 -74.3558 203° Southwest 162 186 7,400 -450 Descending Boston Center
Thu 10:40:44 PM 41.8400 -74.3767 199° South 168 193 7,000 -200 Descending Boston Center
Thu 10:41:44 PM 41.8019 -74.3950 200° South 168 193 7,000  Level Boston Center
Thu 10:42:44 PM 41.7578 -74.4161 200° South 163 188 7,000  Level Boston Center
Thu 10:43:44 PM 41.7242 -74.4344 202° Southwest 157 181 7,000  Level Boston Center
Thu 10:44:44 PM 41.6800 -74.4581 202° Southwest 157 181 7,000  Level Boston Center
Thu 10:45:44 PM 41.6442 -74.4764 201° Southwest 157 181 7,000 -100 Level Boston Center
Thu 10:46:44 PM 41.5981 -74.4972 199° South 157 181 6,800 -400 Descending Boston Center
Thu 10:47:44 PM 41.5603 -74.5181 202° Southwest 157 181 6,200 -350 Descending Boston Center
Thu 10:48:44 PM 41.5139 -74.5414 201° Southwest 162 186 6,100 -50 Descending Boston Center
Thu 10:49:44 PM 41.4781 -74.5569 198° South 162 186 6,100  Level Boston Center
Thu 10:50:44 PM 41.4317 -74.5831 203° Southwest 162 186 6,100 -50 Level Boston Center
Thu 10:51:44 PM 41.3939 -74.6011 200° South 162 186 6,000 -47 Descending Boston Center
Thu 10:52:53 PM 41.3333 -74.6167 191° South 163 188 6,000  Level New York TRACON
Thu 10:53:53 PM 41.3000 -74.6333 201° Southwest 156 180 6,000 -200 Level New York TRACON
Thu 10:54:53 PM 41.2500 -74.6167 166° South 184 212 5,600 -550 Descending New York TRACON
Thu 10:55:53 PM 41.2000 -74.6000 166° South 196 226 4,900 -650 Descending New York TRACON
Thu 10:56:53 PM 41.1500 -74.5667 153° Southeast 201 231 4,300 -429 Descending New York TRACON
Thu 10:57:59 PM 41.0833 -74.5500 169° South 196 226 4,000 -150 Descending New York TRACON
Thu 10:58:53 PM 41.0833 -74.4833 90° East 192 221 4,000 53 Level New York TRACON
Thu 10:59:53 PM 41.0833 -74.4167 90° East 181 208 4,100  Climbing New York TRACON
Thu 11:00:53 PM 41.0500 -74.3667 131° Southeast 194 223 4,000  Descending New York TRACON
Thu 11:01:53 PM 41.0167 -74.3167 131° Southeast 192 221 4,100  Climbing New York TRACON
Thu 11:02:59 PM 40.9833 -74.2500 124° Southeast 197 227 4,000 -45 Descending New York TRACON
Thu 11:04:05 PM 40.9333 -74.2000 143° Southeast 201 231 4,000 -263 Level New York TRACON
Thu 11:04:53 PM 40.9000 -74.1500 131° Southeast 204 235 3,500 -526 Descending New York TRACON
Thu 11:05:59 PM 40.8667 -74.1000 131° Southeast 210 242 3,000 -381 Descending New York TRACON
Thu 11:06:59 PM 40.8167 -74.0833 166° South 193 222 2,700 -737 Descending New York TRACON
Thu 11:07:53 PM 40.7667 -74.1167 207° Southwest 185 213 1,600 -1,105 Descending New York TRACON
Thu 11:08:53 PM 40.7167 -74.1500 207° Southwest 178 205 600 -1,000 Descending New York TRACON
Thu 11:10:00 PM 40.6925 -74.1687 169° South  Level Estimated
Thu 11:17:00 PM 40.6925 -74.1687 169° South  Level Estimated
Thu 11:18:00 PM 40.6925 -74.1687 169° South  Level Estimated

Login

Don't have an account? Register now (free) for customized features, flight alerts, and more!